sensor_id;sensor_type;location;lat;lon;timestamp;P1;P2;P0
47079;PMS5003;33067;49.296;14.470;2023-08-06T00:00:01;23;23;
47079;PMS5003;33067;49.296;14.470;2023-08-06T00:02:26;15;15;
47079;PMS5003;33067;49.296;14.470;2023-08-06T00:04:52;21;21;
47079;PMS5003;33067;49.296;14.470;2023-08-06T00:07:17;21;20;
47079;PMS5003;33067;49.296;14.470;2023-08-06T00:09:42;13;13;
47079;PMS5003;33067;49.296;14.470;2023-08-06T00:12:07;21;21;
47079;PMS5003;33067;49.296;14.470;2023-08-06T00:14:33;19;19;
47079;PMS5003;33067;49.296;14.470;2023-08-06T00:16:58;19;19;
47079;PMS5003;33067;49.296;14.470;2023-08-06T00:19:24;16;16;
47079;PMS5003;33067;49.296;14.470;2023-08-06T00:21:49;20;20;
47079;PMS5003;33067;49.296;14.470;2023-08-06T00:24:15;12;12;
47079;PMS5003;33067;49.296;14.470;2023-08-06T00:26:40;18;18;
47079;PMS5003;33067;49.296;14.470;2023-08-06T00:29:05;17;17;
47079;PMS5003;33067;49.296;14.470;2023-08-06T00:31:30;16;16;
47079;PMS5003;33067;49.296;14.470;2023-08-06T00:33:56;19;17;
47079;PMS5003;33067;49.296;14.470;2023-08-06T00:36:21;14;14;
47079;PMS5003;33067;49.296;14.470;2023-08-06T00:38:46;13;13;
47079;PMS5003;33067;49.296;14.470;2023-08-06T00:41:11;14;14;
47079;PMS5003;33067;49.296;14.470;2023-08-06T00:43:37;15;14;
47079;PMS5003;33067;49.296;14.470;2023-08-06T00:46:02;12;12;
47079;PMS5003;33067;49.296;14.470;2023-08-06T00:48:27;13;13;
47079;PMS5003;33067;49.296;14.470;2023-08-06T00:50:52;15;15;
47079;PMS5003;33067;49.296;14.470;2023-08-06T00:53:17;13;13;
47079;PMS5003;33067;49.296;14.470;2023-08-06T00:55:42;14;14;
47079;PMS5003;33067;49.296;14.470;2023-08-06T00:58:07;15;15;
47079;PMS5003;33067;49.296;14.470;2023-08-06T01:00:33;11;11;
47079;PMS5003;33067;49.296;14.470;2023-08-06T01:02:58;12;12;
47079;PMS5003;33067;49.296;14.470;2023-08-06T01:05:24;11;11;
47079;PMS5003;33067;49.296;14.470;2023-08-06T01:07:53;12;12;
47079;PMS5003;33067;49.296;14.470;2023-08-06T01:10:18;10;10;
47079;PMS5003;33067;49.296;14.470;2023-08-06T01:12:41;13;12;
47079;PMS5003;33067;49.296;14.470;2023-08-06T01:15:06;13;13;
47079;PMS5003;33067;49.296;14.470;2023-08-06T01:17:30;11;11;
47079;PMS5003;33067;49.296;14.470;2023-08-06T01:19:55;12;12;
47079;PMS5003;33067;49.296;14.470;2023-08-06T01:22:20;11;11;
47079;PMS5003;33067;49.296;14.470;2023-08-06T01:24:46;13;13;
47079;PMS5003;33067;49.296;14.470;2023-08-06T01:27:11;10;10;
47079;PMS5003;33067;49.296;14.470;2023-08-06T01:29:37;10;10;
47079;PMS5003;33067;49.296;14.470;2023-08-06T01:32:00;13;13;
47079;PMS5003;33067;49.296;14.470;2023-08-06T01:34:27;12;12;
47079;PMS5003;33067;49.296;14.470;2023-08-06T01:36:51;12;12;
47079;PMS5003;33067;49.296;14.470;2023-08-06T01:39:16;10;10;
47079;PMS5003;33067;49.296;14.470;2023-08-06T01:41:41;11;11;
47079;PMS5003;33067;49.296;14.470;2023-08-06T01:44:06;12;12;
47079;PMS5003;33067;49.296;14.470;2023-08-06T01:46:31;10;10;
47079;PMS5003;33067;49.296;14.470;2023-08-06T01:48:56;12;12;
47079;PMS5003;33067;49.296;14.470;2023-08-06T01:51:21;12;12;
47079;PMS5003;33067;49.296;14.470;2023-08-06T01:53:47;13;11;
47079;PMS5003;33067;49.296;14.470;2023-08-06T01:56:12;8;8;
47079;PMS5003;33067;49.296;14.470;2023-08-06T01:58:37;10;10;
47079;PMS5003;33067;49.296;14.470;2023-08-06T02:01:02;14;14;
47079;PMS5003;33067;49.296;14.470;2023-08-06T02:03:28;16;16;
47079;PMS5003;33067;49.296;14.470;2023-08-06T02:05:53;17;17;
47079;PMS5003;33067;49.296;14.470;2023-08-06T02:08:18;10;10;
47079;PMS5003;33067;49.296;14.470;2023-08-06T02:13:00;10;10;
47079;PMS5003;33067;49.296;14.470;2023-08-06T02:15:25;18;18;
47079;PMS5003;33067;49.296;14.470;2023-08-06T02:17:50;9;8;
47079;PMS5003;33067;49.296;14.470;2023-08-06T02:20:16;7;7;
47079;PMS5003;33067;49.296;14.470;2023-08-06T02:22:41;6;6;
47079;PMS5003;33067;49.296;14.470;2023-08-06T02:25:06;7;7;
47079;PMS5003;33067;49.296;14.470;2023-08-06T02:27:31;6;6;
47079;PMS5003;33067;49.296;14.470;2023-08-06T02:29:56;5;5;
47079;PMS5003;33067;49.296;14.470;2023-08-06T02:32:21;6;6;
47079;PMS5003;33067;49.296;14.470;2023-08-06T02:34:46;5;5;
47079;PMS5003;33067;49.296;14.470;2023-08-06T02:37:11;6;6;
47079;PMS5003;33067;49.296;14.470;2023-08-06T02:39:36;6;6;
47079;PMS5003;33067;49.296;14.470;2023-08-06T02:42:01;6;6;
47079;PMS5003;33067;49.296;14.470;2023-08-06T02:44:26;7;7;
47079;PMS5003;33067;49.296;14.470;2023-08-06T02:46:51;9;7;
47079;PMS5003;33067;49.296;14.470;2023-08-06T02:49:16;7;7;
47079;PMS5003;33067;49.296;14.470;2023-08-06T02:51:42;10;8;
47079;PMS5003;33067;49.296;14.470;2023-08-06T02:54:07;7;7;
47079;PMS5003;33067;49.296;14.470;2023-08-06T02:56:32;6;6;
47079;PMS5003;33067;49.296;14.470;2023-08-06T02:58:57;7;7;
47079;PMS5003;33067;49.296;14.470;2023-08-06T03:01:22;6;6;
47079;PMS5003;33067;49.296;14.470;2023-08-06T03:03:47;5;5;
47079;PMS5003;33067;49.296;14.470;2023-08-06T03:06:12;4;4;
47079;PMS5003;33067;49.296;14.470;2023-08-06T03:08:38;12;12;
47079;PMS5003;33067;49.296;14.470;2023-08-06T03:11:03;7;7;
47079;PMS5003;33067;49.296;14.470;2023-08-06T03:13:28;6;6;
47079;PMS5003;33067;49.296;14.470;2023-08-06T03:15:53;7;5;
47079;PMS5003;33067;49.296;14.470;2023-08-06T03:18:18;5;5;
47079;PMS5003;33067;49.296;14.470;2023-08-06T03:20:44;7;7;
47079;PMS5003;33067;49.296;14.470;2023-08-06T03:23:08;7;7;
47079;PMS5003;33067;49.296;14.470;2023-08-06T03:25:35;6;6;
47079;PMS5003;33067;49.296;14.470;2023-08-06T03:27:58;6;5;
47079;PMS5003;33067;49.296;14.470;2023-08-06T03:30:23;8;7;
47079;PMS5003;33067;49.296;14.470;2023-08-06T03:32:48;7;7;
47079;PMS5003;33067;49.296;14.470;2023-08-06T03:35:14;7;7;
47079;PMS5003;33067;49.296;14.470;2023-08-06T03:37:39;8;7;
47079;PMS5003;33067;49.296;14.470;2023-08-06T03:40:04;6;6;
47079;PMS5003;33067;49.296;14.470;2023-08-06T03:42:29;6;6;
47079;PMS5003;33067;49.296;14.470;2023-08-06T03:44:54;7;7;
47079;PMS5003;33067;49.296;14.470;2023-08-06T03:47:19;8;8;
47079;PMS5003;33067;49.296;14.470;2023-08-06T03:49:44;6;6;
47079;PMS5003;33067;49.296;14.470;2023-08-06T03:52:09;8;8;
47079;PMS5003;33067;49.296;14.470;2023-08-06T03:54:34;6;6;
47079;PMS5003;33067;49.296;14.470;2023-08-06T03:56:59;7;7;
47079;PMS5003;33067;49.296;14.470;2023-08-06T03:59:24;7;7;
47079;PMS5003;33067;49.296;14.470;2023-08-06T04:01:49;7;7;
47079;PMS5003;33067;49.296;14.470;2023-08-06T04:04:15;6;6;
47079;PMS5003;33067;49.296;14.470;2023-08-06T04:06:40;6;6;
47079;PMS5003;33067;49.296;14.470;2023-08-06T04:09:05;9;8;
47079;PMS5003;33067;49.296;14.470;2023-08-06T04:11:30;8;8;
47079;PMS5003;33067;49.296;14.470;2023-08-06T04:13:55;7;7;
47079;PMS5003;33067;49.296;14.470;2023-08-06T04:16:20;10;9;
47079;PMS5003;33067;49.296;14.470;2023-08-06T04:18:45;7;7;
47079;PMS5003;33067;49.296;14.470;2023-08-06T04:21:10;6;6;
47079;PMS5003;33067;49.296;14.470;2023-08-06T04:23:35;7;6;
47079;PMS5003;33067;49.296;14.470;2023-08-06T04:26:00;5;5;
47079;PMS5003;33067;49.296;14.470;2023-08-06T04:28:25;9;7;
47079;PMS5003;33067;49.296;14.470;2023-08-06T04:30:50;10;10;
47079;PMS5003;33067;49.296;14.470;2023-08-06T04:33:15;12;9;
47079;PMS5003;33067;49.296;14.470;2023-08-06T04:35:40;10;10;
47079;PMS5003;33067;49.296;14.470;2023-08-06T04:38:06;12;10;
47079;PMS5003;33067;49.296;14.470;2023-08-06T04:40:32;11;10;
47079;PMS5003;33067;49.296;14.470;2023-08-06T04:42:56;11;11;
47079;PMS5003;33067;49.296;14.470;2023-08-06T04:45:21;12;12;
47079;PMS5003;33067;49.296;14.470;2023-08-06T04:47:46;13;10;
47079;PMS5003;33067;49.296;14.470;2023-08-06T04:50:11;15;15;
47079;PMS5003;33067;49.296;14.470;2023-08-06T04:52:37;15;15;
47079;PMS5003;33067;49.296;14.470;2023-08-06T04:55:01;11;11;
47079;PMS5003;33067;49.296;14.470;2023-08-06T04:57:26;12;10;
47079;PMS5003;33067;49.296;14.470;2023-08-06T04:59:51;9;9;
47079;PMS5003;33067;49.296;14.470;2023-08-06T05:02:17;28;28;
47079;PMS5003;33067;49.296;14.470;2023-08-06T05:04:43;26;25;
47079;PMS5003;33067;49.296;14.470;2023-08-06T05:07:08;10;10;
47079;PMS5003;33067;49.296;14.470;2023-08-06T05:09:33;10;9;
47079;PMS5003;33067;49.296;14.470;2023-08-06T05:12:00;9;9;
47079;PMS5003;33067;49.296;14.470;2023-08-06T05:14:23;9;9;
47079;PMS5003;33067;49.296;14.470;2023-08-06T05:16:48;9;9;
47079;PMS5003;33067;49.296;14.470;2023-08-06T05:19:13;10;10;
47079;PMS5003;33067;49.296;14.470;2023-08-06T05:21:38;10;10;
47079;PMS5003;33067;49.296;14.470;2023-08-06T05:24:04;9;8;
47079;PMS5003;33067;49.296;14.470;2023-08-06T05:26:28;10;8;
47079;PMS5003;33067;49.296;14.470;2023-08-06T05:28:54;13;12;
47079;PMS5003;33067;49.296;14.470;2023-08-06T05:31:19;10;10;
47079;PMS5003;33067;49.296;14.470;2023-08-06T05:33:45;30;30;
47079;PMS5003;33067;49.296;14.470;2023-08-06T05:36:10;26;26;
47079;PMS5003;33067;49.296;14.470;2023-08-06T05:38:36;30;30;
47079;PMS5003;33067;49.296;14.470;2023-08-06T05:41:01;10;10;
47079;PMS5003;33067;49.296;14.470;2023-08-06T05:43:27;42;42;
47079;PMS5003;33067;49.296;14.470;2023-08-06T05:45:53;36;36;
47079;PMS5003;33067;49.296;14.470;2023-08-06T05:48:18;14;13;
47079;PMS5003;33067;49.296;14.470;2023-08-06T05:50:43;22;22;
47079;PMS5003;33067;49.296;14.470;2023-08-06T05:53:08;35;33;
47079;PMS5003;33067;49.296;14.470;2023-08-06T05:55:33;16;15;
47079;PMS5003;33067;49.296;14.470;2023-08-06T05:57:58;30;27;
47079;PMS5003;33067;49.296;14.470;2023-08-06T06:00:24;30;30;
47079;PMS5003;33067;49.296;14.470;2023-08-06T06:02:49;31;30;
47079;PMS5003;33067;49.296;14.470;2023-08-06T06:05:15;19;18;
47079;PMS5003;33067;49.296;14.470;2023-08-06T06:07:40;12;12;
47079;PMS5003;33067;49.296;14.470;2023-08-06T06:10:06;16;14;
47079;PMS5003;33067;49.296;14.470;2023-08-06T06:12:31;42;39;
47079;PMS5003;33067;49.296;14.470;2023-08-06T06:14:57;36;33;
47079;PMS5003;33067;49.296;14.470;2023-08-06T06:17:22;27;27;
47079;PMS5003;33067;49.296;14.470;2023-08-06T06:19:47;38;36;
47079;PMS5003;33067;49.296;14.470;2023-08-06T06:22:13;17;17;
47079;PMS5003;33067;49.296;14.470;2023-08-06T06:24:38;37;37;
47079;PMS5003;33067;49.296;14.470;2023-08-06T06:27:04;14;14;
47079;PMS5003;33067;49.296;14.470;2023-08-06T06:29:30;33;33;
47079;PMS5003;33067;49.296;14.470;2023-08-06T06:31:55;15;15;
47079;PMS5003;33067;49.296;14.470;2023-08-06T06:34:21;26;26;
47079;PMS5003;33067;49.296;14.470;2023-08-06T06:36:46;26;25;
47079;PMS5003;33067;49.296;14.470;2023-08-06T06:39:11;19;19;
47079;PMS5003;33067;49.296;14.470;2023-08-06T06:41:37;21;20;
47079;PMS5003;33067;49.296;14.470;2023-08-06T06:44:02;14;14;
47079;PMS5003;33067;49.296;14.470;2023-08-06T06:46:27;18;17;
47079;PMS5003;33067;49.296;14.470;2023-08-06T06:48:53;24;19;
47079;PMS5003;33067;49.296;14.470;2023-08-06T06:51:19;27;26;
47079;PMS5003;33067;49.296;14.470;2023-08-06T06:53:44;17;17;
47079;PMS5003;33067;49.296;14.470;2023-08-06T06:56:10;14;14;
47079;PMS5003;33067;49.296;14.470;2023-08-06T06:58:35;31;31;
47079;PMS5003;33067;49.296;14.470;2023-08-06T07:01:01;27;27;
47079;PMS5003;33067;49.296;14.470;2023-08-06T07:03:26;41;41;
47079;PMS5003;33067;49.296;14.470;2023-08-06T07:05:51;36;36;
47079;PMS5003;33067;49.296;14.470;2023-08-06T07:08:16;12;12;
47079;PMS5003;33067;49.296;14.470;2023-08-06T07:10:42;15;15;
47079;PMS5003;33067;49.296;14.470;2023-08-06T07:13:07;19;19;
47079;PMS5003;33067;49.296;14.470;2023-08-06T07:15:32;15;14;
47079;PMS5003;33067;49.296;14.470;2023-08-06T07:17:58;20;20;
47079;PMS5003;33067;49.296;14.470;2023-08-06T07:20:23;14;14;
47079;PMS5003;33067;49.296;14.470;2023-08-06T07:22:48;12;12;
47079;PMS5003;33067;49.296;14.470;2023-08-06T07:25:14;37;37;
47079;PMS5003;33067;49.296;14.470;2023-08-06T07:27:39;12;12;
47079;PMS5003;33067;49.296;14.470;2023-08-06T07:30:04;26;26;
47079;PMS5003;33067;49.296;14.470;2023-08-06T07:32:29;14;13;
47079;PMS5003;33067;49.296;14.470;2023-08-06T07:34:56;32;31;
47079;PMS5003;33067;49.296;14.470;2023-08-06T07:37:20;12;11;
47079;PMS5003;33067;49.296;14.470;2023-08-06T07:39:46;17;15;
47079;PMS5003;33067;49.296;14.470;2023-08-06T07:42:12;13;12;
47079;PMS5003;33067;49.296;14.470;2023-08-06T07:44:37;30;29;
47079;PMS5003;33067;49.296;14.470;2023-08-06T07:47:04;21;21;
47079;PMS5003;33067;49.296;14.470;2023-08-06T07:49:28;26;26;
47079;PMS5003;33067;49.296;14.470;2023-08-06T07:51:53;12;12;
47079;PMS5003;33067;49.296;14.470;2023-08-06T07:54:19;29;28;
47079;PMS5003;33067;49.296;14.470;2023-08-06T07:56:44;29;29;
47079;PMS5003;33067;49.296;14.470;2023-08-06T07:59:10;30;29;
47079;PMS5003;33067;49.296;14.470;2023-08-06T08:01:37;26;26;
47079;PMS5003;33067;49.296;14.470;2023-08-06T08:04:02;31;31;
47079;PMS5003;33067;49.296;14.470;2023-08-06T08:06:29;32;31;
47079;PMS5003;33067;49.296;14.470;2023-08-06T08:08:53;31;30;
47079;PMS5003;33067;49.296;14.470;2023-08-06T08:11:18;26;26;
47079;PMS5003;33067;49.296;14.470;2023-08-06T08:13:43;26;26;
47079;PMS5003;33067;49.296;14.470;2023-08-06T08:16:09;29;28;
47079;PMS5003;33067;49.296;14.470;2023-08-06T08:18:36;26;26;
47079;PMS5003;33067;49.296;14.470;2023-08-06T08:21:00;13;13;
47079;PMS5003;33067;49.296;14.470;2023-08-06T08:23:25;24;24;
47079;PMS5003;33067;49.296;14.470;2023-08-06T08:25:51;15;15;
47079;PMS5003;33067;49.296;14.470;2023-08-06T08:28:16;14;13;
47079;PMS5003;33067;49.296;14.470;2023-08-06T08:30:41;15;15;
47079;PMS5003;33067;49.296;14.470;2023-08-06T08:33:06;9;9;
47079;PMS5003;33067;49.296;14.470;2023-08-06T08:35:32;20;19;
47079;PMS5003;33067;49.296;14.470;2023-08-06T08:37:57;23;20;
47079;PMS5003;33067;49.296;14.470;2023-08-06T08:40:22;16;16;
47079;PMS5003;33067;49.296;14.470;2023-08-06T08:42:48;19;17;
47079;PMS5003;33067;49.296;14.470;2023-08-06T08:45:14;16;16;
47079;PMS5003;33067;49.296;14.470;2023-08-06T08:47:38;12;12;
47079;PMS5003;33067;49.296;14.470;2023-08-06T08:50:03;12;11;
47079;PMS5003;33067;49.296;14.470;2023-08-06T08:52:28;9;9;
47079;PMS5003;33067;49.296;14.470;2023-08-06T08:54:53;9;9;
47079;PMS5003;33067;49.296;14.470;2023-08-06T08:57:18;9;9;
47079;PMS5003;33067;49.296;14.470;2023-08-06T08:59:43;9;9;
47079;PMS5003;33067;49.296;14.470;2023-08-06T09:02:09;7;7;
47079;PMS5003;33067;49.296;14.470;2023-08-06T09:04:34;10;9;
47079;PMS5003;33067;49.296;14.470;2023-08-06T09:06:59;8;8;
47079;PMS5003;33067;49.296;14.470;2023-08-06T09:09:26;7;6;
47079;PMS5003;33067;49.296;14.470;2023-08-06T09:11:49;8;8;
47079;PMS5003;33067;49.296;14.470;2023-08-06T09:14:14;8;8;
47079;PMS5003;33067;49.296;14.470;2023-08-06T09:16:39;9;9;
47079;PMS5003;33067;49.296;14.470;2023-08-06T09:19:07;9;9;
47079;PMS5003;33067;49.296;14.470;2023-08-06T09:21:29;8;8;
47079;PMS5003;33067;49.296;14.470;2023-08-06T09:23:55;9;7;
47079;PMS5003;33067;49.296;14.470;2023-08-06T09:26:20;6;6;
47079;PMS5003;33067;49.296;14.470;2023-08-06T09:28:45;7;7;
47079;PMS5003;33067;49.296;14.470;2023-08-06T09:31:10;7;7;
47079;PMS5003;33067;49.296;14.470;2023-08-06T09:33:36;7;7;
47079;PMS5003;33067;49.296;14.470;2023-08-06T09:38:25;8;8;
47079;PMS5003;33067;49.296;14.470;2023-08-06T09:40:50;9;7;
47079;PMS5003;33067;49.296;14.470;2023-08-06T09:43:18;6;6;
47079;PMS5003;33067;49.296;14.470;2023-08-06T09:45:41;8;8;
47079;PMS5003;33067;49.296;14.470;2023-08-06T09:48:06;8;8;
47079;PMS5003;33067;49.296;14.470;2023-08-06T09:50:31;6;6;
47079;PMS5003;33067;49.296;14.470;2023-08-06T09:52:56;10;10;
47079;PMS5003;33067;49.296;14.470;2023-08-06T09:55:21;9;7;
47079;PMS5003;33067;49.296;14.470;2023-08-06T09:57:47;6;6;
47079;PMS5003;33067;49.296;14.470;2023-08-06T10:00:12;8;8;
47079;PMS5003;33067;49.296;14.470;2023-08-06T10:02:37;9;7;
47079;PMS5003;33067;49.296;14.470;2023-08-06T10:05:02;8;7;
47079;PMS5003;33067;49.296;14.470;2023-08-06T10:07:27;7;7;
47079;PMS5003;33067;49.296;14.470;2023-08-06T10:09:52;6;6;
47079;PMS5003;33067;49.296;14.470;2023-08-06T10:12:17;7;7;
47079;PMS5003;33067;49.296;14.470;2023-08-06T10:14:42;8;8;
47079;PMS5003;33067;49.296;14.470;2023-08-06T10:17:07;6;6;
47079;PMS5003;33067;49.296;14.470;2023-08-06T10:19:32;8;8;
47079;PMS5003;33067;49.296;14.470;2023-08-06T10:22:10;6;6;
47079;PMS5003;33067;49.296;14.470;2023-08-06T10:24:22;7;7;
47079;PMS5003;33067;49.296;14.470;2023-08-06T10:26:48;8;8;
47079;PMS5003;33067;49.296;14.470;2023-08-06T10:34:03;5;5;
47079;PMS5003;33067;49.296;14.470;2023-08-06T10:36:28;7;7;
47079;PMS5003;33067;49.296;14.470;2023-08-06T10:38:53;8;6;
47079;PMS5003;33067;49.296;14.470;2023-08-06T10:41:22;6;6;
47079;PMS5003;33067;49.296;14.470;2023-08-06T10:43:43;6;6;
47079;PMS5003;33067;49.296;14.470;2023-08-06T10:46:09;6;5;
47079;PMS5003;33067;49.296;14.470;2023-08-06T10:48:33;6;6;
47079;PMS5003;33067;49.296;14.470;2023-08-06T10:50:59;8;6;
47079;PMS5003;33067;49.296;14.470;2023-08-06T10:53:23;5;5;
47079;PMS5003;33067;49.296;14.470;2023-08-06T10:55:48;4;4;
47079;PMS5003;33067;49.296;14.470;2023-08-06T10:58:15;5;5;
47079;PMS5003;33067;49.296;14.470;2023-08-06T11:00:38;5;5;
47079;PMS5003;33067;49.296;14.470;2023-08-06T11:03:03;5;5;
47079;PMS5003;33067;49.296;14.470;2023-08-06T11:05:28;6;5;
47079;PMS5003;33067;49.296;14.470;2023-08-06T11:07:53;7;7;
47079;PMS5003;33067;49.296;14.470;2023-08-06T11:10:18;6;6;
47079;PMS5003;33067;49.296;14.470;2023-08-06T11:12:43;5;5;
47079;PMS5003;33067;49.296;14.470;2023-08-06T11:15:09;3;3;
47079;PMS5003;33067;49.296;14.470;2023-08-06T11:17:34;5;4;
47079;PMS5003;33067;49.296;14.470;2023-08-06T11:19:59;7;7;
47079;PMS5003;33067;49.296;14.470;2023-08-06T11:22:23;6;6;
47079;PMS5003;33067;49.296;14.470;2023-08-06T11:24:48;5;5;
47079;PMS5003;33067;49.296;14.470;2023-08-06T11:27:14;5;5;
47079;PMS5003;33067;49.296;14.470;2023-08-06T11:29:39;3;3;
47079;PMS5003;33067;49.296;14.470;2023-08-06T11:32:04;5;5;
47079;PMS5003;33067;49.296;14.470;2023-08-06T11:34:29;7;5;
47079;PMS5003;33067;49.296;14.470;2023-08-06T11:36:54;4;4;
47079;PMS5003;33067;49.296;14.470;2023-08-06T11:39:19;4;4;
47079;PMS5003;33067;49.296;14.470;2023-08-06T11:41:44;6;5;
47079;PMS5003;33067;49.296;14.470;2023-08-06T11:44:10;6;6;
47079;PMS5003;33067;49.296;14.470;2023-08-06T11:48:59;11;9;
47079;PMS5003;33067;49.296;14.470;2023-08-06T11:51:24;36;35;
47079;PMS5003;33067;49.296;14.470;2023-08-06T11:53:49;22;22;
47079;PMS5003;33067;49.296;14.470;2023-08-06T11:56:15;5;5;
47079;PMS5003;33067;49.296;14.470;2023-08-06T11:58:40;7;5;
47079;PMS5003;33067;49.296;14.470;2023-08-06T12:01:05;5;5;
47079;PMS5003;33067;49.296;14.470;2023-08-06T12:03:30;7;7;
47079;PMS5003;33067;49.296;14.470;2023-08-06T12:05:55;6;6;
47079;PMS5003;33067;49.296;14.470;2023-08-06T12:08:20;7;6;
47079;PMS5003;33067;49.296;14.470;2023-08-06T12:10:45;6;6;
47079;PMS5003;33067;49.296;14.470;2023-08-06T12:13:10;6;5;
47079;PMS5003;33067;49.296;14.470;2023-08-06T12:15:35;7;6;
47079;PMS5003;33067;49.296;14.470;2023-08-06T12:18:00;5;5;
47079;PMS5003;33067;49.296;14.470;2023-08-06T12:20:25;6;6;
47079;PMS5003;33067;49.296;14.470;2023-08-06T12:22:50;7;6;
47079;PMS5003;33067;49.296;14.470;2023-08-06T12:25:15;5;5;
47079;PMS5003;33067;49.296;14.470;2023-08-06T12:27:40;7;7;
47079;PMS5003;33067;49.296;14.470;2023-08-06T12:30:05;6;6;
47079;PMS5003;33067;49.296;14.470;2023-08-06T12:32:30;4;4;
47079;PMS5003;33067;49.296;14.470;2023-08-06T12:34:55;5;5;
47079;PMS5003;33067;49.296;14.470;2023-08-06T12:37:20;5;5;
47079;PMS5003;33067;49.296;14.470;2023-08-06T12:39:46;4;4;
47079;PMS5003;33067;49.296;14.470;2023-08-06T12:42:11;5;5;
47079;PMS5003;33067;49.296;14.470;2023-08-06T12:44:37;5;5;
47079;PMS5003;33067;49.296;14.470;2023-08-06T12:47:03;5;5;
47079;PMS5003;33067;49.296;14.470;2023-08-06T12:49:29;7;4;
47079;PMS5003;33067;49.296;14.470;2023-08-06T12:51:55;8;8;
47079;PMS5003;33067;49.296;14.470;2023-08-06T12:54:21;7;6;
47079;PMS5003;33067;49.296;14.470;2023-08-06T12:56:47;5;5;
47079;PMS5003;33067;49.296;14.470;2023-08-06T12:59:13;5;5;
47079;PMS5003;33067;49.296;14.470;2023-08-06T13:01:39;6;6;
47079;PMS5003;33067;49.296;14.470;2023-08-06T13:04:04;5;5;
47079;PMS5003;33067;49.296;14.470;2023-08-06T13:06:30;5;5;
47079;PMS5003;33067;49.296;14.470;2023-08-06T13:08:56;5;5;
47079;PMS5003;33067;49.296;14.470;2023-08-06T13:11:22;5;5;
47079;PMS5003;33067;49.296;14.470;2023-08-06T13:13:48;6;6;
47079;PMS5003;33067;49.296;14.470;2023-08-06T13:16:13;6;6;
47079;PMS5003;33067;49.296;14.470;2023-08-06T13:18:39;6;6;
47079;PMS5003;33067;49.296;14.470;2023-08-06T13:21:05;5;5;
47079;PMS5003;33067;49.296;14.470;2023-08-06T13:23:31;5;5;
47079;PMS5003;33067;49.296;14.470;2023-08-06T13:25:57;3;3;
47079;PMS5003;33067;49.296;14.470;2023-08-06T13:28:23;4;4;
47079;PMS5003;33067;49.296;14.470;2023-08-06T13:30:49;3;3;
47079;PMS5003;33067;49.296;14.470;2023-08-06T13:33:14;4;2;
47079;PMS5003;33067;49.296;14.470;2023-08-06T13:35:40;3;3;
47079;PMS5003;33067;49.296;14.470;2023-08-06T13:38:05;1;1;
47079;PMS5003;33067;49.296;14.470;2023-08-06T13:40:31;2;2;
47079;PMS5003;33067;49.296;14.470;2023-08-06T13:42:55;4;2;
47079;PMS5003;33067;49.296;14.470;2023-08-06T13:45:20;3;3;
47079;PMS5003;33067;49.296;14.470;2023-08-06T13:47:45;4;4;
47079;PMS5003;33067;49.296;14.470;2023-08-06T13:50:10;6;4;
47079;PMS5003;33067;49.296;14.470;2023-08-06T13:52:35;2;2;
47079;PMS5003;33067;49.296;14.470;2023-08-06T13:55:00;3;3;
47079;PMS5003;33067;49.296;14.470;2023-08-06T13:57:26;3;3;
47079;PMS5003;33067;49.296;14.470;2023-08-06T13:59:52;3;2;
47079;PMS5003;33067;49.296;14.470;2023-08-06T14:02:18;2;2;
47079;PMS5003;33067;49.296;14.470;2023-08-06T14:04:44;3;3;
47079;PMS5003;33067;49.296;14.470;2023-08-06T14:07:10;3;3;
47079;PMS5003;33067;49.296;14.470;2023-08-06T14:09:35;2;2;
47079;PMS5003;33067;49.296;14.470;2023-08-06T14:12:02;5;3;
47079;PMS5003;33067;49.296;14.470;2023-08-06T14:14:27;2;2;
47079;PMS5003;33067;49.296;14.470;2023-08-06T14:16:53;2;2;
47079;PMS5003;33067;49.296;14.470;2023-08-06T14:19:19;5;4;
47079;PMS5003;33067;49.296;14.470;2023-08-06T14:21:45;4;3;
47079;PMS5003;33067;49.296;14.470;2023-08-06T14:24:11;3;3;
47079;PMS5003;33067;49.296;14.470;2023-08-06T14:26:37;2;2;
47079;PMS5003;33067;49.296;14.470;2023-08-06T14:29:02;2;2;
47079;PMS5003;33067;49.296;14.470;2023-08-06T14:31:28;1;1;
47079;PMS5003;33067;49.296;14.470;2023-08-06T14:33:54;2;2;
47079;PMS5003;33067;49.296;14.470;2023-08-06T14:36:20;0;0;
47079;PMS5003;33067;49.296;14.470;2023-08-06T14:38:46;1;1;
47079;PMS5003;33067;49.296;14.470;2023-08-06T14:41:11;1;1;
47079;PMS5003;33067;49.296;14.470;2023-08-06T14:43:37;2;2;
47079;PMS5003;33067;49.296;14.470;2023-08-06T14:46:03;3;2;
47079;PMS5003;33067;49.296;14.470;2023-08-06T14:48:30;3;3;
47079;PMS5003;33067;49.296;14.470;2023-08-06T14:50:55;1;1;
47079;PMS5003;33067;49.296;14.470;2023-08-06T14:53:21;0;0;
47079;PMS5003;33067;49.296;14.470;2023-08-06T14:55:46;2;0;
47079;PMS5003;33067;49.296;14.470;2023-08-06T14:58:12;0;0;
47079;PMS5003;33067;49.296;14.470;2023-08-06T15:00:38;1;1;
47079;PMS5003;33067;49.296;14.470;2023-08-06T15:03:04;0;0;
47079;PMS5003;33067;49.296;14.470;2023-08-06T15:05:30;0;0;
47079;PMS5003;33067;49.296;14.470;2023-08-06T15:07:56;0;0;
47079;PMS5003;33067;49.296;14.470;2023-08-06T15:10:22;0;0;
47079;PMS5003;33067;49.296;14.470;2023-08-06T15:12:48;0;0;
47079;PMS5003;33067;49.296;14.470;2023-08-06T15:15:14;0;0;
47079;PMS5003;33067;49.296;14.470;2023-08-06T15:17:39;0;0;
47079;PMS5003;33067;49.296;14.470;2023-08-06T15:20:05;0;0;
47079;PMS5003;33067;49.296;14.470;2023-08-06T15:22:31;1;1;
47079;PMS5003;33067;49.296;14.470;2023-08-06T15:24:57;0;0;
47079;PMS5003;33067;49.296;14.470;2023-08-06T15:27:23;1;1;
47079;PMS5003;33067;49.296;14.470;2023-08-06T15:29:48;0;0;
47079;PMS5003;33067;49.296;14.470;2023-08-06T15:32:14;2;1;
47079;PMS5003;33067;49.296;14.470;2023-08-06T15:34:40;0;0;
47079;PMS5003;33067;49.296;14.470;2023-08-06T15:37:06;0;0;
47079;PMS5003;33067;49.296;14.470;2023-08-06T15:39:32;0;0;
47079;PMS5003;33067;49.296;14.470;2023-08-06T15:41:57;1;1;
47079;PMS5003;33067;49.296;14.470;2023-08-06T15:44:23;2;2;
47079;PMS5003;33067;49.296;14.470;2023-08-06T15:46:49;1;1;
47079;PMS5003;33067;49.296;14.470;2023-08-06T15:49:15;0;0;
47079;PMS5003;33067;49.296;14.470;2023-08-06T15:51:41;1;1;
47079;PMS5003;33067;49.296;14.470;2023-08-06T15:54:07;1;1;
47079;PMS5003;33067;49.296;14.470;2023-08-06T15:56:32;2;2;
47079;PMS5003;33067;49.296;14.470;2023-08-06T15:59:07;2;2;
47079;PMS5003;33067;49.296;14.470;2023-08-06T16:01:24;1;0;
47079;PMS5003;33067;49.296;14.470;2023-08-06T16:03:50;3;3;
47079;PMS5003;33067;49.296;14.470;2023-08-06T16:06:16;3;3;
47079;PMS5003;33067;49.296;14.470;2023-08-06T16:08:42;2;2;
47079;PMS5003;33067;49.296;14.470;2023-08-06T16:11:08;4;4;
47079;PMS5003;33067;49.296;14.470;2023-08-06T16:13:34;1;1;
47079;PMS5003;33067;49.296;14.470;2023-08-06T16:15:59;1;1;
47079;PMS5003;33067;49.296;14.470;2023-08-06T16:18:25;1;1;